createdAt,value
2018-09-28T00:01:04.429Z,11.27
2018-09-28T00:03:33.201Z,11.28
2018-09-28T00:06:01.743Z,11.19
2018-09-28T00:08:30.717Z,11.21
2018-09-28T00:10:59.488Z,11.15
2018-09-28T00:13:28.653Z,11.06
2018-09-28T00:15:57.758Z,11.08
2018-09-28T00:18:26.439Z,11.02
2018-09-28T00:20:55.695Z,11.03
2018-09-28T00:23:24.523Z,11.01
2018-09-28T00:25:53.356Z,10.96
2018-09-28T00:28:22.125Z,10.92
2018-09-28T00:30:51.107Z,10.90
2018-09-28T00:33:20.100Z,10.90
2018-09-28T00:35:49.144Z,10.89
2018-09-28T00:38:18.081Z,10.84
2018-09-28T00:40:47.082Z,10.74
2018-09-28T00:43:15.681Z,10.62
2018-09-28T00:45:44.166Z,10.61
2018-09-28T00:48:13.029Z,10.55
2018-09-28T00:50:41.790Z,10.62
2018-09-28T00:53:10.271Z,10.64
2018-09-28T00:55:38.942Z,10.50
2018-09-28T00:58:07.651Z,10.51
2018-09-28T01:00:36.353Z,10.52
2018-09-28T01:03:05.320Z,10.55
2018-09-28T01:05:33.967Z,10.58
2018-09-28T01:08:02.574Z,10.56
2018-09-28T01:10:31.230Z,10.60
2018-09-28T01:12:59.881Z,10.61
2018-09-28T01:15:28.624Z,10.66
2018-09-28T01:17:58.410Z,10.64
2018-09-28T01:20:27.283Z,10.68
2018-09-28T01:22:56.467Z,10.61
2018-09-28T01:25:24.981Z,10.66
2018-09-28T01:27:54.506Z,10.64
2018-09-28T01:30:23.749Z,10.62
2018-09-28T01:32:52.571Z,10.62
2018-09-28T01:35:21.888Z,10.60
2018-09-28T01:37:50.671Z,10.59
2018-09-28T01:40:19.491Z,10.53
2018-09-28T01:42:48.489Z,10.50
2018-09-28T01:45:18.232Z,10.54
2018-09-28T01:47:46.725Z,10.52
2018-09-28T01:50:15.338Z,10.52
2018-09-28T01:52:49.714Z,10.54
2018-09-28T01:55:18.556Z,10.51
2018-09-28T01:57:47.396Z,10.52
2018-09-28T02:00:16.125Z,10.56
2018-09-28T02:02:44.755Z,10.57
2018-09-28T02:05:14.442Z,10.58
2018-09-28T02:07:43.022Z,10.60
2018-09-28T02:10:12.056Z,10.59
2018-09-28T02:12:40.672Z,10.61
2018-09-28T02:15:09.532Z,10.60
2018-09-28T02:17:38.204Z,10.59
2018-09-28T02:20:08.077Z,10.63
2018-09-28T02:22:37.626Z,10.66
2018-09-28T02:25:06.369Z,10.68
2018-09-28T02:27:35.053Z,10.71
2018-09-28T02:30:03.686Z,10.70
2018-09-28T02:32:32.467Z,10.72
2018-09-28T02:35:00.980Z,10.68
2018-09-28T02:37:29.636Z,10.69
2018-09-28T02:39:58.678Z,10.64
2018-09-28T02:42:27.235Z,10.63
2018-09-28T02:44:55.798Z,10.61
2018-09-28T02:47:24.300Z,10.58
2018-09-28T02:49:53.099Z,10.63
2018-09-28T02:52:21.637Z,10.65
2018-09-28T02:54:50.280Z,10.72
2018-09-28T02:57:19.190Z,10.78
2018-09-28T02:59:47.741Z,10.78
2018-09-28T03:02:16.566Z,10.81
2018-09-28T03:04:45.106Z,10.91
2018-09-28T03:07:14.109Z,10.94
2018-09-28T03:09:42.769Z,11.00
2018-09-28T03:12:11.368Z,11.09
2018-09-28T03:14:40.127Z,11.29
2018-09-28T03:17:08.857Z,11.50
2018-09-28T03:19:38.007Z,11.63
2018-09-28T03:22:06.701Z,11.79
2018-09-28T03:24:35.351Z,11.98
2018-09-28T03:27:03.975Z,12.13
2018-09-28T03:29:33.124Z,12.19
2018-09-28T03:32:02.506Z,12.29
2018-09-28T03:34:31.138Z,12.40
2018-09-28T03:36:59.939Z,12.49
2018-09-28T03:39:29.261Z,12.63
2018-09-28T03:41:57.875Z,12.66
2018-09-28T03:44:26.521Z,12.64
2018-09-28T03:46:55.168Z,12.67
2018-09-28T03:49:23.987Z,12.73
2018-09-28T03:51:52.711Z,12.77
2018-09-28T03:54:21.568Z,12.87
2018-09-28T03:56:50.054Z,12.89
2018-09-28T03:59:19.015Z,12.86
2018-09-28T04:01:47.612Z,12.87
2018-09-28T04:04:16.590Z,12.79
2018-09-28T04:06:45.412Z,12.72
2018-09-28T04:09:14.177Z,12.66
2018-09-28T04:11:42.677Z,12.57
2018-09-28T04:14:11.122Z,12.50
2018-09-28T04:16:39.851Z,12.46
2018-09-28T04:19:08.654Z,12.45
2018-09-28T04:21:37.288Z,12.36
2018-09-28T04:24:05.797Z,12.23
2018-09-28T04:26:34.288Z,12.08
2018-09-28T04:29:02.842Z,11.98
2018-09-28T04:31:32.737Z,11.94
2018-09-28T04:34:01.452Z,11.94
2018-09-28T04:36:30.312Z,11.79
2018-09-28T04:38:58.826Z,11.83
2018-09-28T04:41:27.449Z,11.81
2018-09-28T04:43:56.266Z,11.82
2018-09-28T04:46:24.806Z,11.85
2018-09-28T04:48:53.742Z,11.85
2018-09-28T04:51:22.272Z,11.82
2018-09-28T04:53:51.171Z,11.86
2018-09-28T04:56:20.036Z,11.81
2018-09-28T04:58:49.009Z,11.84
2018-09-28T05:01:18.388Z,11.82
2018-09-28T05:03:47.138Z,11.83
2018-09-28T05:06:15.992Z,11.87
2018-09-28T05:08:45.251Z,11.83
2018-09-28T05:11:14.094Z,11.89
2018-09-28T05:13:42.736Z,11.81
2018-09-28T05:16:11.355Z,11.86
2018-09-28T05:18:40.077Z,11.86
2018-09-28T05:21:08.670Z,11.91
2018-09-28T05:23:37.294Z,11.85
2018-09-28T05:26:06.979Z,11.89
2018-09-28T05:28:35.868Z,11.91
2018-09-28T05:31:04.520Z,11.87
2018-09-28T05:33:32.993Z,11.85
2018-09-28T05:36:01.613Z,11.81
2018-09-28T05:38:30.092Z,11.81
2018-09-28T05:40:58.586Z,11.81
2018-09-28T05:43:27.074Z,11.76
2018-09-28T05:45:55.615Z,11.83
2018-09-28T05:48:24.305Z,11.86
2018-09-28T05:50:53.105Z,11.87
2018-09-28T05:53:21.844Z,11.95
2018-09-28T05:55:50.732Z,11.97
2018-09-28T05:58:24.795Z,11.95
2018-09-28T06:03:05.071Z,12.00
2018-09-28T06:05:37.058Z,12.00
2018-09-28T06:08:05.631Z,12.04
2018-09-28T06:10:34.814Z,12.06
2018-09-28T06:13:03.425Z,12.09
2018-09-28T06:15:32.083Z,12.11
2018-09-28T06:18:00.577Z,12.11
2018-09-28T06:20:29.053Z,12.14
2018-09-28T06:22:57.771Z,12.19
2018-09-28T06:25:26.296Z,12.21
2018-09-28T06:27:54.727Z,12.22
2018-09-28T06:30:23.266Z,12.26
2018-09-28T06:32:51.869Z,12.27
2018-09-28T06:35:20.483Z,12.33
2018-09-28T06:37:49.046Z,12.35
2018-09-28T06:40:17.620Z,12.37
2018-09-28T06:42:46.084Z,12.39
2018-09-28T06:45:14.638Z,12.39
2018-09-28T06:47:43.694Z,12.42
2018-09-28T06:50:12.310Z,12.50
2018-09-28T06:52:41.513Z,12.56
2018-09-28T06:55:09.969Z,12.61
2018-09-28T06:57:38.705Z,12.69
2018-09-28T07:00:08.568Z,12.69
2018-09-28T07:02:37.938Z,12.79
2018-09-28T07:05:07.081Z,12.83
2018-09-28T07:07:35.676Z,12.93
2018-09-28T07:10:04.296Z,13.02
2018-09-28T07:12:32.907Z,13.01
2018-09-28T07:15:01.527Z,12.88
2018-09-28T07:17:30.095Z,12.87
2018-09-28T07:19:58.648Z,12.85
2018-09-28T07:22:27.496Z,12.83
2018-09-28T07:24:56.063Z,12.76
2018-09-28T07:27:24.577Z,12.69
2018-09-28T07:29:53.127Z,12.79
2018-09-28T07:32:21.802Z,12.73
2018-09-28T07:34:50.284Z,12.78
2018-09-28T07:37:18.849Z,12.73
2018-09-28T07:39:50.410Z,12.80
2018-09-28T07:42:19.005Z,12.76
2018-09-28T07:44:47.524Z,12.79
2018-09-28T07:47:16.002Z,12.84
2018-09-28T07:49:44.489Z,12.81
2018-09-28T07:52:13.036Z,12.82
2018-09-28T07:54:41.631Z,12.88
2018-09-28T07:57:10.704Z,12.95
2018-09-28T07:59:39.238Z,13.00
2018-09-28T08:02:08.351Z,13.06
2018-09-28T08:04:36.922Z,12.99
2018-09-28T08:07:05.501Z,13.10
2018-09-28T08:09:33.995Z,13.14
2018-09-28T08:12:02.715Z,13.22
2018-09-28T08:14:31.459Z,13.39
2018-09-28T08:17:00.062Z,13.39
2018-09-28T08:19:28.744Z,13.45
2018-09-28T08:21:57.535Z,13.39
2018-09-28T08:24:26.130Z,13.66
2018-09-28T08:26:54.598Z,13.76
2018-09-28T08:29:23.051Z,13.53
2018-09-28T08:31:52.388Z,13.68
2018-09-28T08:34:21.655Z,13.73
2018-09-28T08:36:50.333Z,13.64
2018-09-28T08:39:18.883Z,13.54
2018-09-28T08:41:47.380Z,13.59
2018-09-28T08:44:15.967Z,13.63
2018-09-28T08:46:44.512Z,13.68
2018-09-28T08:49:13.033Z,13.70
2018-09-28T08:51:42.102Z,13.57
2018-09-28T08:54:10.835Z,13.67
2018-09-28T08:56:39.284Z,13.48
2018-09-28T08:59:07.977Z,13.47
2018-09-28T09:01:37.180Z,13.55
2018-09-28T09:04:06.198Z,13.74
2018-09-28T09:06:34.783Z,13.87
2018-09-28T09:09:03.475Z,13.75
2018-09-28T09:11:32.073Z,13.84
2018-09-28T09:14:00.547Z,13.88
2018-09-28T09:16:29.083Z,14.01
2018-09-28T09:18:57.690Z,13.91
2018-09-28T09:21:26.152Z,14.08
2018-09-28T09:23:54.774Z,14.20
2018-09-28T09:26:23.230Z,14.11
2018-09-28T09:28:51.850Z,14.05
2018-09-28T09:31:20.335Z,14.00
2018-09-28T09:33:48.818Z,13.95
2018-09-28T09:36:17.286Z,13.93
2018-09-28T09:38:45.718Z,14.13
2018-09-28T09:41:14.238Z,14.28
2018-09-28T09:43:42.723Z,14.43
2018-09-28T09:46:11.174Z,14.72
2018-09-28T09:48:39.814Z,14.78
2018-09-28T09:51:08.413Z,14.66
2018-09-28T09:53:37.391Z,14.28
2018-09-28T09:56:06.011Z,14.48
2018-09-28T09:58:34.594Z,14.53
2018-09-28T10:01:05.756Z,14.56
2018-09-28T10:03:40.251Z,14.70
2018-09-28T10:06:10.122Z,14.46
2018-09-28T10:08:38.617Z,14.36
2018-09-28T10:11:08.053Z,14.59
2018-09-28T10:13:37.042Z,14.58
2018-09-28T10:16:05.547Z,14.82
2018-09-28T10:18:34.078Z,14.89
2018-09-28T10:21:02.938Z,15.17
2018-09-28T10:23:31.597Z,15.40
2018-09-28T10:26:00.513Z,15.45
2018-09-28T10:28:29.159Z,15.20
2018-09-28T10:30:57.773Z,15.37
2018-09-28T10:33:26.400Z,15.19
2018-09-28T10:35:55.834Z,15.39
2018-09-28T10:38:24.542Z,15.41
2018-09-28T10:40:53.505Z,15.49
2018-09-28T10:43:21.931Z,15.35
2018-09-28T10:45:50.984Z,15.57
2018-09-28T10:48:19.802Z,15.68
2018-09-28T10:50:48.851Z,15.56
2018-09-28T10:53:17.967Z,15.55
2018-09-28T10:55:46.828Z,15.68
2018-09-28T10:58:16.171Z,15.61
2018-09-28T11:00:45.218Z,15.73
2018-09-28T11:03:14.113Z,15.64
2018-09-28T11:05:42.855Z,15.75
2018-09-28T11:08:11.692Z,15.80
2018-09-28T11:10:40.855Z,15.82
2018-09-28T11:13:10.160Z,15.69
2018-09-28T11:15:39.026Z,15.59
2018-09-28T11:18:07.652Z,15.29
2018-09-28T11:20:36.898Z,15.27
2018-09-28T11:23:05.539Z,15.37
2018-09-28T11:25:34.263Z,15.46
2018-09-28T11:28:03.534Z,15.48
2018-09-28T11:30:32.201Z,15.31
2018-09-28T11:33:00.867Z,15.31
2018-09-28T11:35:29.829Z,15.45
2018-09-28T11:37:58.458Z,15.59
2018-09-28T11:40:27.249Z,15.62
2018-09-28T11:42:55.752Z,15.75
2018-09-28T11:45:24.573Z,15.90
2018-09-28T11:47:53.176Z,16.19
2018-09-28T11:50:22.104Z,16.07
2018-09-28T11:52:51.042Z,15.99
2018-09-28T11:55:21.102Z,16.15
2018-09-28T11:57:49.681Z,16.32
2018-09-28T12:00:18.595Z,16.58
2018-09-28T12:02:47.123Z,16.65
2018-09-28T12:05:16.634Z,16.61
2018-09-28T12:07:45.765Z,16.69
2018-09-28T12:10:15.007Z,16.60
2018-09-28T12:12:43.602Z,16.63
2018-09-28T12:15:13.557Z,16.45
2018-09-28T12:17:42.754Z,16.32
2018-09-28T12:20:11.954Z,16.54
2018-09-28T12:22:41.095Z,16.15
2018-09-28T12:25:10.085Z,16.39
2018-09-28T12:27:39.483Z,16.41
2018-09-28T12:30:09.333Z,16.20
2018-09-28T12:32:40.401Z,16.06
2018-09-28T12:35:09.725Z,16.32
2018-09-28T12:37:39.570Z,16.35
2018-09-28T12:40:08.311Z,16.23
2018-09-28T12:42:37.140Z,16.17
2018-09-28T12:45:05.917Z,16.22
2018-09-28T12:47:35.410Z,16.29
2018-09-28T12:50:04.114Z,16.14
2018-09-28T12:52:32.733Z,16.23
2018-09-28T12:55:02.282Z,16.05
2018-09-28T12:57:30.932Z,16.04
2018-09-28T12:59:59.447Z,15.98
2018-09-28T13:02:27.965Z,16.02
2018-09-28T13:04:56.327Z,16.05
2018-09-28T13:07:25.447Z,16.10
2018-09-28T13:09:53.970Z,16.17
2018-09-28T13:12:24.069Z,15.87
2018-09-28T13:14:53.914Z,16.00
2018-09-28T13:17:23.160Z,16.08
2018-09-28T13:19:52.516Z,16.03
2018-09-28T13:22:21.046Z,16.02
2018-09-28T13:24:50.091Z,16.16
2018-09-28T13:27:18.816Z,16.18
2018-09-28T13:29:47.378Z,15.88
2018-09-28T13:32:16.017Z,15.85
2018-09-28T13:34:45.453Z,15.87
2018-09-28T13:37:14.909Z,15.85
2018-09-28T13:39:45.524Z,15.90
2018-09-28T13:42:14.266Z,15.93
2018-09-28T13:44:43.777Z,15.86
2018-09-28T13:47:13.903Z,15.62
2018-09-28T13:49:42.892Z,15.58
2018-09-28T13:52:11.865Z,15.68
2018-09-28T13:54:40.840Z,15.68
2018-09-28T13:57:09.867Z,15.74
2018-09-28T13:59:39.076Z,15.75
2018-09-28T14:02:08.302Z,15.63
2018-09-28T14:04:37.092Z,15.68
2018-09-28T14:07:06.342Z,15.66
2018-09-28T14:09:35.171Z,15.70
2018-09-28T14:12:03.896Z,15.61
2018-09-28T14:14:32.827Z,15.65
2018-09-28T14:17:02.125Z,15.70
2018-09-28T14:19:31.001Z,15.68
2018-09-28T14:21:59.518Z,15.49
2018-09-28T14:24:28.263Z,15.63
2018-09-28T14:26:56.865Z,15.70
2018-09-28T14:29:26.267Z,15.82
2018-09-28T14:31:55.220Z,15.86
2018-09-28T14:34:24.266Z,15.87
2018-09-28T14:36:53.853Z,15.84
2018-09-28T14:39:23.486Z,15.84
2018-09-28T14:41:52.524Z,15.95
2018-09-28T14:44:21.640Z,16.06
2018-09-28T14:46:50.795Z,16.15
2018-09-28T14:49:19.772Z,16.11
2018-09-28T14:51:48.648Z,16.02
2018-09-28T14:54:17.650Z,16.10
2018-09-28T14:56:46.731Z,16.08
2018-09-28T14:59:15.677Z,16.04
2018-09-28T15:01:44.612Z,16.05
2018-09-28T15:04:13.648Z,16.04
2018-09-28T15:06:43.069Z,16.01
2018-09-28T15:09:11.818Z,15.94
2018-09-28T15:11:41.233Z,15.99
2018-09-28T15:14:10.113Z,15.98
2018-09-28T15:16:39.428Z,15.99
2018-09-28T15:19:08.845Z,15.98
2018-09-28T15:21:37.914Z,16.04
2018-09-28T15:24:06.816Z,15.80
2018-09-28T15:26:35.806Z,15.76
2018-09-28T15:29:04.900Z,15.74
2018-09-28T15:31:33.585Z,15.72
2018-09-28T15:34:02.117Z,15.69
2018-09-28T15:36:30.646Z,15.61
2018-09-28T15:38:59.527Z,15.50
2018-09-28T15:41:28.802Z,15.42
2018-09-28T15:43:58.324Z,15.30
2018-09-28T15:46:27.666Z,15.19
2018-09-28T15:48:56.779Z,15.12
2018-09-28T15:51:26.682Z,15.10
2018-09-28T15:53:55.632Z,15.00
2018-09-28T15:56:24.393Z,14.98
2018-09-28T15:58:53.338Z,14.95
2018-09-28T16:01:22.831Z,14.85
2018-09-28T16:03:52.580Z,14.74
2018-09-28T16:06:22.463Z,14.70
2018-09-28T16:08:51.534Z,14.71
2018-09-28T16:11:20.388Z,14.64
2018-09-28T16:13:49.465Z,14.62
2018-09-28T16:16:18.783Z,14.55
2018-09-28T16:18:47.298Z,14.40
2018-09-28T16:21:15.823Z,14.42
2018-09-28T16:23:45.491Z,14.39
2018-09-28T16:26:15.650Z,14.36
2018-09-28T16:28:44.628Z,14.27
2018-09-28T16:31:13.110Z,14.25
2018-09-28T16:33:41.685Z,14.18
2018-09-28T16:36:10.388Z,14.13
2018-09-28T16:38:40.383Z,13.99
2018-09-28T16:41:09.384Z,13.94
2018-09-28T16:43:38.115Z,13.90
2018-09-28T16:46:06.947Z,13.89
2018-09-28T16:48:35.890Z,13.83
2018-09-28T16:51:05.098Z,13.68
2018-09-28T16:53:33.735Z,13.69
2018-09-28T16:56:02.352Z,13.57
2018-09-28T16:58:31.212Z,13.52
2018-09-28T17:00:59.931Z,13.44
2018-09-28T17:03:29.348Z,13.48
2018-09-28T17:05:58.013Z,13.37
2018-09-28T17:08:26.991Z,13.43
2018-09-28T17:10:56.077Z,13.23
2018-09-28T17:13:25.057Z,13.25
2018-09-28T17:15:54.658Z,13.22
2018-09-28T17:18:23.568Z,13.12
2018-09-28T17:20:52.433Z,13.16
2018-09-28T17:23:21.219Z,13.12
2018-09-28T17:25:50.075Z,13.07
2018-09-28T17:28:19.116Z,13.07
2018-09-28T17:30:48.126Z,12.96
2018-09-28T17:33:17.411Z,12.82
2018-09-28T17:35:46.663Z,12.83
2018-09-28T17:38:15.462Z,12.82
2018-09-28T17:40:43.987Z,12.78
2018-09-28T17:43:12.880Z,12.60
2018-09-28T17:45:41.735Z,12.59
2018-09-28T17:48:10.974Z,12.51
2018-09-28T17:50:40.518Z,12.51
2018-09-28T17:53:09.691Z,12.39
2018-09-28T17:55:38.960Z,12.33
2018-09-28T17:58:08.053Z,12.34
2018-09-28T18:00:36.766Z,12.31
2018-09-28T18:03:05.572Z,12.28
2018-09-28T18:05:34.151Z,12.27
2018-09-28T18:08:02.932Z,12.19
2018-09-28T18:10:32.837Z,12.19
2018-09-28T18:13:01.430Z,12.13
2018-09-28T18:15:30.023Z,12.09
2018-09-28T18:17:58.914Z,12.07
2018-09-28T18:20:27.786Z,12.02
2018-09-28T18:22:56.891Z,11.94
2018-09-28T18:25:25.582Z,11.95
2018-09-28T18:27:54.754Z,11.90
2018-09-28T18:30:23.675Z,11.88
2018-09-28T18:32:52.955Z,11.74
2018-09-28T18:35:22.244Z,11.76
2018-09-28T18:37:50.946Z,11.52
2018-09-28T18:40:19.740Z,11.67
2018-09-28T18:42:48.828Z,11.58
2018-09-28T18:45:19.078Z,11.56
2018-09-28T18:47:48.353Z,11.49
2018-09-28T18:50:17.406Z,11.45
2018-09-28T18:52:46.354Z,11.45
2018-09-28T18:55:15.830Z,11.41
2018-09-28T18:57:45.240Z,11.34
2018-09-28T19:00:14.147Z,11.37
2018-09-28T19:02:43.851Z,11.39
2018-09-28T19:05:13.363Z,11.37
2018-09-28T19:07:42.313Z,11.34
2018-09-28T19:10:11.350Z,11.30
2018-09-28T19:12:40.566Z,11.31
2018-09-28T19:15:09.313Z,11.29
2018-09-28T19:17:38.230Z,11.24
2018-09-28T19:20:06.962Z,11.24
2018-09-28T19:22:35.667Z,11.18
2018-09-28T19:25:04.889Z,11.06
2018-09-28T19:27:33.320Z,11.11
2018-09-28T19:30:01.915Z,11.05
2018-09-28T19:32:30.747Z,11.00
2018-09-28T19:34:59.474Z,10.96
2018-09-28T19:37:28.395Z,10.97
2018-09-28T19:39:57.739Z,10.97
2018-09-28T19:42:26.214Z,10.96
2018-09-28T19:44:54.897Z,10.90
2018-09-28T19:47:23.552Z,10.89
2018-09-28T19:49:52.805Z,10.88
2018-09-28T19:52:21.512Z,10.85
2018-09-28T19:54:50.473Z,10.81
2018-09-28T19:57:19.976Z,10.77
2018-09-28T19:59:51.014Z,10.75
2018-09-28T20:02:21.956Z,10.77
2018-09-28T20:04:51.373Z,10.74
2018-09-28T20:07:23.552Z,10.72
2018-09-28T20:09:53.040Z,10.71
2018-09-28T20:12:21.709Z,10.63
2018-09-28T20:14:50.615Z,10.62
2018-09-28T20:17:20.163Z,10.63
2018-09-28T20:19:49.606Z,10.54
2018-09-28T20:22:18.506Z,10.42
2018-09-28T20:24:49.477Z,10.38
2018-09-28T20:27:18.606Z,10.36
2018-09-28T20:29:47.993Z,10.33
2018-09-28T20:32:17.568Z,10.32
2018-09-28T20:34:46.561Z,10.31
2018-09-28T20:37:15.610Z,10.27
2018-09-28T20:39:44.891Z,10.28
2018-09-28T20:42:22.279Z,10.28
2018-09-28T20:44:51.708Z,10.26
2018-09-28T20:47:21.149Z,10.19
2018-09-28T20:49:50.438Z,10.11
2018-09-28T20:52:19.330Z,10.11
2018-09-28T20:54:48.438Z,10.14
2018-09-28T20:57:16.914Z,10.08
2018-09-28T20:59:45.385Z,10.10
2018-09-28T21:02:15.012Z,10.07
2018-09-28T21:04:44.288Z,9.98
2018-09-28T21:07:12.852Z,9.92
2018-09-28T21:09:41.542Z,9.92
2018-09-28T21:12:10.236Z,9.89
2018-09-28T21:14:40.494Z,9.82
2018-09-28T21:17:09.062Z,9.82
2018-09-28T21:19:37.811Z,9.72
2018-09-28T21:22:07.371Z,9.75
2018-09-28T21:24:36.172Z,9.71
2018-09-28T21:27:05.232Z,9.67
2018-09-28T21:29:34.672Z,9.67
2018-09-28T21:32:03.255Z,9.60
2018-09-28T21:34:33.460Z,9.53
2018-09-28T21:37:02.898Z,9.53
2018-09-28T21:39:32.331Z,9.50
2018-09-28T21:42:03.366Z,9.42
2018-09-28T21:44:32.449Z,9.39
2018-09-28T21:47:01.311Z,9.27
2018-09-28T21:49:29.771Z,9.19
2018-09-28T21:51:59.170Z,9.13
2018-09-28T21:54:28.028Z,9.08
2018-09-28T21:56:56.650Z,9.03
2018-09-28T21:59:25.089Z,9.06
2018-09-28T22:01:53.684Z,9.06
2018-09-28T22:04:22.691Z,9.03
2018-09-28T22:06:53.402Z,8.98
2018-09-28T22:09:23.104Z,8.98
2018-09-28T22:11:52.574Z,8.87
2018-09-28T22:14:22.376Z,8.86
2018-09-28T22:16:51.985Z,8.82
2018-09-28T22:19:21.725Z,8.84
2018-09-28T22:21:50.295Z,8.77
2018-09-28T22:24:19.897Z,8.73
2018-09-28T22:26:49.283Z,8.77
2018-09-28T22:29:19.014Z,8.66
2018-09-28T22:31:48.401Z,8.62
2018-09-28T22:34:19.590Z,8.44
2018-09-28T22:36:48.053Z,8.43
2018-09-28T22:39:17.089Z,8.45
2018-09-28T22:41:46.675Z,8.50
2018-09-28T22:44:15.357Z,8.52
2018-09-28T22:46:44.337Z,8.50
2018-09-28T22:49:12.855Z,8.47
2018-09-28T22:51:41.362Z,8.39
2018-09-28T22:54:10.740Z,8.28
2018-09-28T22:56:39.457Z,8.29
2018-09-28T22:59:08.791Z,8.23
2018-09-28T23:01:38.653Z,8.19
2018-09-28T23:04:08.252Z,8.21
2018-09-28T23:06:36.734Z,8.26
2018-09-28T23:09:08.106Z,8.07
2018-09-28T23:11:37.620Z,8.10
2018-09-28T23:14:07.347Z,8.09
2018-09-28T23:16:36.559Z,8.07
2018-09-28T23:19:04.969Z,8.00
2018-09-28T23:21:33.854Z,7.98
2018-09-28T23:24:02.271Z,8.03
2018-09-28T23:26:31.763Z,8.00
2018-09-28T23:29:00.345Z,7.92
2018-09-28T23:31:29.018Z,7.97
2018-09-28T23:33:58.639Z,7.88
2018-09-28T23:36:27.533Z,7.88
2018-09-28T23:38:57.484Z,7.84
2018-09-28T23:41:26.416Z,7.65
2018-09-28T23:43:56.056Z,7.64
2018-09-28T23:46:24.894Z,7.51
2018-09-28T23:48:54.106Z,7.60
2018-09-28T23:51:22.604Z,7.26
2018-09-28T23:53:51.374Z,7.30
2018-09-28T23:56:20.696Z,7.26
2018-09-28T23:58:49.799Z,7.28
